createdAt,value
2017-09-21T00:02:16.035Z,43.93
2017-09-21T00:04:51.385Z,47.73
2017-09-21T00:07:25.649Z,45.70
2017-09-21T00:10:00.707Z,50.53
2017-09-21T00:12:35.819Z,46.80
2017-09-21T00:15:10.544Z,46.27
2017-09-21T00:17:45.434Z,45.90
2017-09-21T00:20:20.211Z,48.47
2017-09-21T00:22:55.110Z,45.33
2017-09-21T00:25:29.830Z,54.77
2017-09-21T00:28:05.635Z,49.80
2017-09-21T00:30:40.257Z,52.00
2017-09-21T00:33:15.041Z,45.30
2017-09-21T00:35:49.843Z,47.63
2017-09-21T00:38:24.831Z,47.20
2017-09-21T00:40:59.669Z,50.70
2017-09-21T00:43:34.791Z,44.63
2017-09-21T00:46:10.686Z,49.27
2017-09-21T00:48:45.548Z,50.27
2017-09-21T00:51:20.216Z,47.57
2017-09-21T00:53:54.975Z,45.07
2017-09-21T00:56:30.000Z,44.10
2017-09-21T00:59:04.618Z,46.53
2017-09-21T01:01:39.268Z,50.57
2017-09-21T01:04:13.983Z,50.43
2017-09-21T01:06:48.708Z,52.60
2017-09-21T01:09:23.567Z,44.93
2017-09-21T01:11:58.142Z,49.37
2017-09-21T01:14:33.321Z,44.97
2017-09-21T01:17:08.179Z,47.60
2017-09-21T01:19:42.808Z,44.40
2017-09-21T01:22:17.360Z,47.53
2017-09-21T01:24:52.123Z,46.80
2017-09-21T01:27:26.861Z,46.07
2017-09-21T01:30:02.330Z,50.17
2017-09-21T01:32:36.867Z,51.13
2017-09-21T01:35:11.644Z,40.40
2017-09-21T01:37:45.935Z,51.30
2017-09-21T01:40:20.789Z,44.10
2017-09-21T01:42:55.364Z,46.60
2017-09-21T01:45:30.371Z,49.23
2017-09-21T01:48:04.980Z,41.23
2017-09-21T01:50:39.441Z,45.10
2017-09-21T01:53:13.306Z,46.33
2017-09-21T01:55:47.763Z,46.10
2017-09-21T01:58:22.546Z,44.87
2017-09-21T02:00:57.456Z,56.97
2017-09-21T02:03:32.743Z,53.00
2017-09-21T02:06:07.676Z,56.40
2017-09-21T02:08:42.691Z,50.70
2017-09-21T02:11:17.895Z,50.30
2017-09-21T02:13:52.345Z,51.10
2017-09-21T02:16:27.643Z,54.93
2017-09-21T02:19:02.450Z,54.13
2017-09-21T02:21:36.815Z,54.37
2017-09-21T02:24:11.810Z,60.73
2017-09-21T02:26:47.285Z,53.07
2017-09-21T02:29:22.267Z,53.93
2017-09-21T02:31:57.188Z,54.97
2017-09-21T02:34:31.748Z,53.27
2017-09-21T02:37:06.508Z,54.83
2017-09-21T02:39:41.102Z,53.93
2017-09-21T02:42:16.136Z,61.73
2017-09-21T02:44:51.736Z,52.87
2017-09-21T02:47:26.699Z,54.40
2017-09-21T02:50:01.236Z,58.97
2017-09-21T02:52:36.150Z,55.20
2017-09-21T02:55:11.010Z,53.27
2017-09-21T02:57:45.702Z,59.47
2017-09-21T03:00:21.308Z,56.40
2017-09-21T03:02:56.054Z,63.23
2017-09-21T03:05:30.667Z,51.27
2017-09-21T03:08:05.368Z,50.67
2017-09-21T03:10:39.990Z,51.80
2017-09-21T03:13:14.856Z,49.60
2017-09-21T03:15:49.480Z,50.57
2017-09-21T03:18:24.407Z,52.87
2017-09-21T03:20:59.154Z,52.80
2017-09-21T03:23:33.947Z,49.40
2017-09-21T03:26:08.872Z,52.40
2017-09-21T03:28:43.494Z,52.10
2017-09-21T03:31:18.112Z,55.00
2017-09-21T03:33:52.943Z,51.13
2017-09-21T03:36:27.841Z,51.83
2017-09-21T03:39:02.525Z,51.20
2017-09-21T03:41:37.330Z,54.13
2017-09-21T03:44:12.037Z,53.43
2017-09-21T03:46:47.051Z,51.10
2017-09-21T03:49:21.872Z,50.30
2017-09-21T03:51:56.486Z,49.30
2017-09-21T03:54:31.307Z,45.47
2017-09-21T03:57:06.126Z,53.27
2017-09-21T03:59:40.811Z,52.30
2017-09-21T04:02:15.216Z,51.33
2017-09-21T04:04:50.616Z,52.83
2017-09-21T04:07:25.396Z,45.57
2017-09-21T04:10:00.239Z,49.80
2017-09-21T04:12:34.947Z,48.87
2017-09-21T04:15:09.907Z,48.77
2017-09-21T04:17:44.806Z,46.37
2017-09-21T04:20:19.414Z,49.57
2017-09-21T04:22:54.150Z,48.07
2017-09-21T04:25:28.816Z,50.63
2017-09-21T04:28:03.619Z,46.33
2017-09-21T04:30:38.729Z,48.30
2017-09-21T04:33:13.380Z,47.80
2017-09-21T04:35:48.231Z,45.63
2017-09-21T04:38:22.963Z,45.07
2017-09-21T04:40:57.742Z,44.53
2017-09-21T04:43:32.567Z,46.40
2017-09-21T04:46:07.204Z,43.07
2017-09-21T04:48:42.091Z,43.30
2017-09-21T04:51:16.709Z,46.37
2017-09-21T04:53:51.750Z,41.00
2017-09-21T04:56:26.350Z,41.90
2017-09-21T04:59:00.773Z,40.67
2017-09-21T05:01:35.771Z,38.77
2017-09-21T05:04:10.467Z,44.93
2017-09-21T05:06:45.298Z,44.90
2017-09-21T05:09:19.763Z,41.90
2017-09-21T05:11:54.608Z,45.37
2017-09-21T05:14:29.319Z,41.70
2017-09-21T05:17:04.031Z,39.97
2017-09-21T05:19:39.776Z,40.30
2017-09-21T05:22:14.668Z,43.93
2017-09-21T05:24:49.290Z,39.77
2017-09-21T05:27:23.918Z,43.27
2017-09-21T05:29:58.622Z,38.03
2017-09-21T05:32:33.457Z,39.70
2017-09-21T05:35:08.195Z,45.50
2017-09-21T05:37:43.315Z,41.70
2017-09-21T05:40:18.020Z,39.73
2017-09-21T05:42:52.804Z,40.43
2017-09-21T05:45:28.066Z,38.57
2017-09-21T05:48:02.632Z,41.90
2017-09-21T05:50:37.555Z,37.30
2017-09-21T05:53:12.301Z,40.93
2017-09-21T05:55:47.059Z,40.43
2017-09-21T05:58:21.842Z,32.80
2017-09-21T06:00:56.706Z,40.73
2017-09-21T06:03:31.469Z,40.23
2017-09-21T06:06:06.270Z,41.37
2017-09-21T06:08:41.887Z,38.73
2017-09-21T06:11:17.557Z,39.60
2017-09-21T06:13:52.411Z,40.97
2017-09-21T06:16:27.335Z,37.00
2017-09-21T06:19:02.144Z,38.63
2017-09-21T06:21:36.957Z,37.70
2017-09-21T06:24:11.642Z,37.20
2017-09-21T06:26:47.297Z,36.57
2017-09-21T06:29:22.069Z,36.10
2017-09-21T06:31:57.428Z,37.00
2017-09-21T06:34:32.281Z,35.97
2017-09-21T06:37:07.031Z,36.33
2017-09-21T06:39:41.818Z,39.40
2017-09-21T06:42:16.763Z,38.10
2017-09-21T06:44:51.497Z,35.70
2017-09-21T06:47:26.302Z,42.03
2017-09-21T06:50:00.926Z,34.53
2017-09-21T06:52:35.447Z,34.77
2017-09-21T06:55:09.976Z,37.27
2017-09-21T06:57:45.095Z,37.00
2017-09-21T07:00:19.704Z,43.00
2017-09-21T07:02:54.658Z,39.80
2017-09-21T07:05:29.507Z,35.00
2017-09-21T07:08:04.304Z,33.77
2017-09-21T07:10:39.347Z,36.53
2017-09-21T07:13:14.099Z,33.80
2017-09-21T07:15:48.996Z,34.80
2017-09-21T07:18:23.924Z,38.53
2017-09-21T07:20:58.682Z,33.83
2017-09-21T07:23:33.710Z,33.30
2017-09-21T07:26:08.502Z,31.70
2017-09-21T07:28:43.211Z,28.80
2017-09-21T07:31:18.167Z,29.07
2017-09-21T07:33:52.676Z,26.73
2017-09-21T07:36:27.459Z,27.70
2017-09-21T07:39:02.379Z,28.17
2017-09-21T07:41:37.055Z,27.77
2017-09-21T07:44:12.011Z,25.57
2017-09-21T07:46:46.963Z,27.97
2017-09-21T07:49:21.823Z,25.87
2017-09-21T07:51:56.239Z,24.97
2017-09-21T07:54:31.131Z,24.30
2017-09-21T07:57:05.720Z,22.40
2017-09-21T07:59:40.599Z,22.00
2017-09-21T08:02:15.410Z,20.23
2017-09-21T08:04:50.111Z,20.80
2017-09-21T08:07:24.830Z,19.70
2017-09-21T08:09:59.747Z,22.10
2017-09-21T08:12:34.346Z,21.30
2017-09-21T08:15:09.096Z,22.00
2017-09-21T08:17:44.138Z,21.03
2017-09-21T08:20:18.851Z,19.97
2017-09-21T08:22:53.712Z,20.50
2017-09-21T08:25:28.406Z,17.80
2017-09-21T08:28:03.067Z,17.23
2017-09-21T08:30:37.912Z,19.50
2017-09-21T08:33:12.702Z,17.13
2017-09-21T08:35:47.312Z,16.00
2017-09-21T08:38:22.104Z,15.33
2017-09-21T08:40:56.933Z,16.83
2017-09-21T08:43:32.267Z,15.90
2017-09-21T08:46:07.040Z,19.47
2017-09-21T08:48:42.007Z,16.43
2017-09-21T08:51:16.727Z,16.23
2017-09-21T08:53:51.420Z,13.73
2017-09-21T08:56:26.204Z,15.37
2017-09-21T08:59:01.182Z,12.80
2017-09-21T09:01:35.809Z,13.60
2017-09-21T09:04:10.872Z,15.60
2017-09-21T09:06:45.918Z,16.43
2017-09-21T09:09:21.227Z,13.47
2017-09-21T09:11:55.948Z,14.77
2017-09-21T09:14:31.049Z,14.63
2017-09-21T09:17:05.960Z,12.97
2017-09-21T09:19:40.919Z,13.20
2017-09-21T09:22:15.876Z,11.53
2017-09-21T09:24:50.643Z,10.43
2017-09-21T09:27:25.671Z,14.60
2017-09-21T09:30:00.620Z,16.20
2017-09-21T09:32:35.594Z,13.20
2017-09-21T09:35:10.390Z,12.67
2017-09-21T09:37:45.465Z,12.53
2017-09-21T09:40:20.375Z,10.87
2017-09-21T09:42:55.215Z,12.27
2017-09-21T09:45:30.063Z,10.73
2017-09-21T09:48:04.816Z,10.43
2017-09-21T09:50:39.535Z,9.40
2017-09-21T09:53:14.223Z,11.00
2017-09-21T09:55:49.121Z,9.67
2017-09-21T09:58:24.050Z,9.77
2017-09-21T10:00:59.071Z,8.87
2017-09-21T10:03:33.415Z,10.23
2017-09-21T10:06:08.318Z,8.83
2017-09-21T10:08:43.235Z,9.50
2017-09-21T10:11:18.811Z,8.67
2017-09-21T10:13:53.714Z,8.30
2017-09-21T10:16:28.603Z,8.33
2017-09-21T10:19:03.283Z,7.97
2017-09-21T10:21:37.641Z,8.30
2017-09-21T10:24:12.844Z,8.93
2017-09-21T10:26:47.522Z,9.30
2017-09-21T10:29:22.197Z,9.90
2017-09-21T10:31:57.029Z,10.07
2017-09-21T10:34:31.821Z,8.63
2017-09-21T10:37:07.314Z,8.80
2017-09-21T10:39:42.345Z,7.53
2017-09-21T10:42:17.304Z,8.60
2017-09-21T10:44:52.615Z,8.83
2017-09-21T10:47:27.254Z,8.83
2017-09-21T10:50:03.159Z,7.70
2017-09-21T10:52:37.971Z,9.00
2017-09-21T10:55:12.755Z,8.10
2017-09-21T10:57:47.674Z,8.47
2017-09-21T11:00:22.413Z,8.33
2017-09-21T11:02:57.027Z,8.20
2017-09-21T11:05:31.547Z,8.87
2017-09-21T11:08:06.307Z,9.73
2017-09-21T11:10:41.002Z,9.83
2017-09-21T11:13:15.894Z,9.47
2017-09-21T11:15:50.392Z,9.83
2017-09-21T11:18:25.263Z,8.00
2017-09-21T11:20:59.946Z,7.80
2017-09-21T11:23:34.743Z,9.93
2017-09-21T11:26:09.400Z,8.20
2017-09-21T11:28:43.951Z,11.03
2017-09-21T11:31:18.755Z,8.63
2017-09-21T11:33:53.759Z,10.37
2017-09-21T11:36:28.391Z,8.90
2017-09-21T11:39:02.902Z,10.20
2017-09-21T11:41:38.722Z,9.17
2017-09-21T11:44:13.418Z,10.00
2017-09-21T11:46:48.156Z,10.83
2017-09-21T11:49:23.161Z,11.80
2017-09-21T11:51:57.871Z,10.40
2017-09-21T11:54:32.493Z,11.90
2017-09-21T11:57:07.603Z,13.13
2017-09-21T11:59:42.239Z,13.47
2017-09-21T12:02:17.051Z,12.90
2017-09-21T12:04:51.679Z,12.00
2017-09-21T12:07:26.488Z,12.07
2017-09-21T12:10:01.123Z,11.87
2017-09-21T12:12:35.647Z,14.33
2017-09-21T12:15:10.652Z,11.80
2017-09-21T12:17:45.300Z,10.40
2017-09-21T12:20:20.486Z,11.00
2017-09-21T12:22:55.167Z,12.90
2017-09-21T12:25:29.855Z,10.63
2017-09-21T12:28:04.656Z,10.60
2017-09-21T12:30:39.016Z,12.33
2017-09-21T12:33:13.919Z,11.83
2017-09-21T12:35:48.927Z,14.43
2017-09-21T12:38:23.834Z,14.50
2017-09-21T12:40:58.567Z,12.83
2017-09-21T12:43:33.262Z,12.60
2017-09-21T12:46:08.667Z,12.80
2017-09-21T12:48:43.904Z,10.83
2017-09-21T12:51:18.627Z,11.93
2017-09-21T12:53:53.267Z,15.20
2017-09-21T12:56:28.404Z,10.00
2017-09-21T12:59:03.519Z,13.23
2017-09-21T13:01:38.450Z,13.53
2017-09-21T13:04:14.314Z,12.77
2017-09-21T13:06:50.296Z,12.73
2017-09-21T13:09:25.288Z,12.20
2017-09-21T13:12:00.212Z,12.07
2017-09-21T13:14:35.992Z,12.43
2017-09-21T13:17:10.629Z,12.80
2017-09-21T13:19:45.523Z,12.50
2017-09-21T13:22:20.352Z,13.07
2017-09-21T13:24:55.031Z,13.63
2017-09-21T13:27:29.855Z,14.57
2017-09-21T13:30:04.887Z,11.30
2017-09-21T13:32:39.739Z,13.97
2017-09-21T13:35:14.396Z,11.77
2017-09-21T13:37:51.083Z,11.37
2017-09-21T13:40:25.518Z,10.70
2017-09-21T13:43:00.143Z,10.20
2017-09-21T13:45:35.204Z,10.60
2017-09-21T13:48:09.911Z,11.17
2017-09-21T13:50:44.629Z,10.20
2017-09-21T13:53:19.341Z,9.77
2017-09-21T13:55:54.047Z,9.93
2017-09-21T13:58:28.666Z,10.83
2017-09-21T14:01:03.531Z,10.47
2017-09-21T14:03:38.051Z,9.53
2017-09-21T14:06:12.847Z,10.50
2017-09-21T14:08:47.648Z,10.40
2017-09-21T14:11:22.357Z,9.10
2017-09-21T14:13:57.117Z,9.97
2017-09-21T14:16:31.693Z,9.40
2017-09-21T14:19:06.731Z,11.00
2017-09-21T14:21:41.341Z,10.30
2017-09-21T14:24:16.078Z,10.63
2017-09-21T14:26:50.966Z,10.60
2017-09-21T14:29:25.648Z,8.57
2017-09-21T14:32:01.370Z,10.50
2017-09-21T14:34:37.207Z,8.97
2017-09-21T14:37:12.027Z,10.73
2017-09-21T14:39:46.891Z,10.50
2017-09-21T14:42:21.687Z,8.53
2017-09-21T14:44:56.478Z,9.33
2017-09-21T14:47:31.161Z,9.40
2017-09-21T14:50:06.060Z,8.70
2017-09-21T14:52:40.700Z,7.80
2017-09-21T14:55:15.591Z,7.80
2017-09-21T14:57:50.491Z,8.47
2017-09-21T15:00:25.196Z,8.90
2017-09-21T15:02:59.837Z,9.63
2017-09-21T15:05:34.432Z,9.43
2017-09-21T15:08:09.303Z,10.03
2017-09-21T15:10:44.016Z,10.40
2017-09-21T15:13:18.890Z,8.97
2017-09-21T15:15:54.896Z,10.10
2017-09-21T15:18:29.591Z,10.20
2017-09-21T15:21:04.269Z,10.03
2017-09-21T15:23:39.319Z,9.77
2017-09-21T15:26:13.819Z,10.87
2017-09-21T15:28:49.007Z,12.03
2017-09-21T15:31:23.748Z,10.10
2017-09-21T15:33:58.391Z,10.10
2017-09-21T15:36:33.002Z,7.90
2017-09-21T15:39:07.643Z,8.80
2017-09-21T15:41:42.330Z,9.70
2017-09-21T15:44:17.127Z,8.53
2017-09-21T15:46:51.834Z,8.23
2017-09-21T15:49:27.402Z,9.80
2017-09-21T15:52:02.123Z,10.20
2017-09-21T15:54:37.039Z,10.33
2017-09-21T15:57:12.279Z,9.73
2017-09-21T15:59:47.009Z,11.03
2017-09-21T16:02:22.087Z,9.77
2017-09-21T16:04:56.977Z,9.80
2017-09-21T16:07:31.903Z,10.80
2017-09-21T16:10:06.511Z,9.70
2017-09-21T16:12:41.510Z,8.87
2017-09-21T16:15:16.419Z,11.20
2017-09-21T16:17:51.229Z,9.07
2017-09-21T16:20:25.826Z,11.63
2017-09-21T16:23:00.825Z,9.20
2017-09-21T16:25:35.884Z,8.47
2017-09-21T16:28:10.583Z,9.17
2017-09-21T16:30:45.107Z,9.90
2017-09-21T16:33:19.935Z,10.03
2017-09-21T16:35:54.249Z,10.23
2017-09-21T16:38:28.777Z,10.40
2017-09-21T16:41:03.523Z,10.63
2017-09-21T16:43:38.726Z,10.97
2017-09-21T16:46:14.095Z,10.70
2017-09-21T16:48:48.940Z,9.97
2017-09-21T16:51:23.571Z,10.10
2017-09-21T16:53:58.382Z,10.50
2017-09-21T16:56:33.963Z,10.40
2017-09-21T16:59:09.002Z,9.47
2017-09-21T17:01:44.631Z,9.90
2017-09-21T17:04:19.151Z,9.83
2017-09-21T17:06:54.011Z,12.17
2017-09-21T17:09:28.635Z,10.90
2017-09-21T17:12:03.627Z,12.47
2017-09-21T17:14:38.450Z,13.20
2017-09-21T17:17:12.913Z,11.77
2017-09-21T17:19:48.192Z,11.20
2017-09-21T17:22:22.919Z,11.17
2017-09-21T17:24:57.728Z,12.20
2017-09-21T17:27:32.547Z,10.47
2017-09-21T17:30:07.246Z,9.90
2017-09-21T17:32:41.767Z,10.70
2017-09-21T17:35:16.694Z,10.27
2017-09-21T17:37:51.079Z,8.60
2017-09-21T17:40:26.049Z,8.83
2017-09-21T17:43:00.667Z,9.63
2017-09-21T17:45:35.392Z,11.10
2017-09-21T17:48:10.173Z,11.80
2017-09-21T17:50:44.979Z,14.17
2017-09-21T17:53:19.834Z,14.73
2017-09-21T17:55:54.897Z,14.53
2017-09-21T17:58:29.794Z,13.70
2017-09-21T18:01:04.700Z,12.97
2017-09-21T18:03:39.576Z,13.13
2017-09-21T18:06:14.988Z,14.00
2017-09-21T18:08:49.731Z,16.17
2017-09-21T18:11:24.552Z,14.60
2017-09-21T18:13:59.279Z,14.33
2017-09-21T18:16:34.039Z,14.90
2017-09-21T18:19:08.886Z,15.40
2017-09-21T18:21:43.623Z,16.00
2017-09-21T18:24:18.484Z,15.33
2017-09-21T18:26:53.301Z,16.57
2017-09-21T18:29:28.117Z,14.43
2017-09-21T18:32:03.179Z,13.83
2017-09-21T18:34:38.158Z,14.97
2017-09-21T18:37:13.223Z,15.60
2017-09-21T18:39:48.107Z,15.67
2017-09-21T18:42:23.032Z,29.13
2017-09-21T18:44:57.620Z,20.27
2017-09-21T18:47:32.335Z,22.00
2017-09-21T18:50:07.072Z,21.10
2017-09-21T18:52:41.839Z,18.60
2017-09-21T18:55:16.591Z,19.30
2017-09-21T18:57:51.583Z,17.30
2017-09-21T19:00:26.191Z,19.43
2017-09-21T19:03:01.417Z,19.93
2017-09-21T19:05:35.978Z,19.13
2017-09-21T19:08:10.883Z,17.87
2017-09-21T19:10:45.938Z,18.50
2017-09-21T19:13:20.651Z,18.90
2017-09-21T19:15:55.758Z,18.10
2017-09-21T19:18:30.456Z,18.43
2017-09-21T19:21:05.339Z,18.70
2017-09-21T19:23:40.048Z,19.40
2017-09-21T19:26:14.784Z,20.47
2017-09-21T19:28:49.515Z,19.93
2017-09-21T19:31:24.448Z,20.83
2017-09-21T19:33:59.178Z,17.33
2017-09-21T19:36:34.082Z,17.37
2017-09-21T19:39:08.879Z,20.27
2017-09-21T19:41:57.246Z,20.33
2017-09-21T19:44:32.435Z,18.40
2017-09-21T19:47:07.296Z,19.27
2017-09-21T19:49:42.006Z,18.23
2017-09-21T19:52:16.836Z,22.13
2017-09-21T19:54:51.838Z,19.13
2017-09-21T19:57:26.338Z,20.10
2017-09-21T20:00:01.059Z,17.37
2017-09-21T20:02:35.758Z,19.63
2017-09-21T20:05:10.708Z,19.43
2017-09-21T20:07:45.689Z,20.57
2017-09-21T20:10:20.482Z,20.00
2017-09-21T20:12:56.080Z,20.67
2017-09-21T20:15:30.904Z,20.90
2017-09-21T20:18:05.344Z,22.27
2017-09-21T20:20:40.136Z,20.70
2017-09-21T20:23:14.948Z,23.23
2017-09-21T20:25:49.738Z,22.00
2017-09-21T20:28:24.660Z,21.30
2017-09-21T20:30:59.722Z,21.73
2017-09-21T20:33:34.323Z,20.77
2017-09-21T20:36:09.041Z,21.57
2017-09-21T20:38:43.849Z,21.53
2017-09-21T20:41:18.663Z,20.87
2017-09-21T20:43:53.402Z,21.00
2017-09-21T20:46:28.043Z,22.03
2017-09-21T20:49:02.945Z,21.73
2017-09-21T20:51:37.718Z,21.93
2017-09-21T20:54:12.353Z,22.23
2017-09-21T20:56:46.785Z,23.00
2017-09-21T20:59:21.679Z,21.33
2017-09-21T21:01:56.485Z,24.07
2017-09-21T21:04:31.128Z,23.60
2017-09-21T21:07:05.861Z,22.00
2017-09-21T21:09:40.806Z,24.37
2017-09-21T21:12:15.619Z,23.77
2017-09-21T21:14:49.977Z,23.60
2017-09-21T21:17:24.902Z,23.70
2017-09-21T21:19:59.540Z,24.70
2017-09-21T21:22:34.623Z,23.50
2017-09-21T21:25:09.119Z,23.53
2017-09-21T21:27:43.662Z,24.97
2017-09-21T21:30:28.687Z,24.20
2017-09-21T21:33:03.230Z,26.97
2017-09-21T21:35:37.932Z,25.30
2017-09-21T21:38:12.592Z,23.40
2017-09-21T21:40:48.226Z,25.30
2017-09-21T21:43:23.395Z,24.47
2017-09-21T21:45:58.160Z,24.83
2017-09-21T21:48:32.838Z,25.67
2017-09-21T21:51:07.660Z,22.13
2017-09-21T21:53:42.475Z,26.03
2017-09-21T21:56:17.136Z,23.40
2017-09-21T21:58:51.640Z,25.10
2017-09-21T22:01:26.351Z,24.77
2017-09-21T22:04:01.196Z,24.03
2017-09-21T22:06:35.955Z,24.70
2017-09-21T22:09:10.541Z,24.37
2017-09-21T22:11:45.173Z,25.97
2017-09-21T22:14:19.903Z,26.10
2017-09-21T22:16:54.870Z,24.17
2017-09-21T22:19:29.554Z,26.80
2017-09-21T22:22:04.376Z,26.87
2017-09-21T22:24:38.746Z,27.77
2017-09-21T22:27:13.646Z,26.33
2017-09-21T22:29:48.254Z,26.10
2017-09-21T22:32:22.941Z,24.77
2017-09-21T22:34:57.801Z,23.83
2017-09-21T22:37:32.547Z,25.93
2017-09-21T22:40:07.269Z,27.60
2017-09-21T22:42:41.995Z,28.83
2017-09-21T22:45:16.995Z,24.57
2017-09-21T22:47:52.696Z,24.87
2017-09-21T22:50:27.415Z,24.57
2017-09-21T22:53:02.063Z,26.07
2017-09-21T22:55:36.866Z,23.87
2017-09-21T22:58:11.540Z,24.80
2017-09-21T23:00:46.343Z,23.90
2017-09-21T23:03:21.207Z,24.93
2017-09-21T23:05:56.023Z,23.40
2017-09-21T23:08:30.876Z,25.53
2017-09-21T23:11:05.657Z,25.57
2017-09-21T23:13:40.509Z,26.73
2017-09-21T23:16:15.395Z,26.37
2017-09-21T23:18:51.333Z,25.93
2017-09-21T23:21:26.271Z,27.33
2017-09-21T23:24:01.064Z,27.20
2017-09-21T23:26:35.935Z,26.07
2017-09-21T23:29:10.866Z,24.20
2017-09-21T23:31:46.879Z,24.90
2017-09-21T23:34:21.634Z,24.07
2017-09-21T23:36:56.464Z,24.63
2017-09-21T23:39:31.407Z,25.83
2017-09-21T23:42:06.220Z,23.60
2017-09-21T23:44:40.933Z,23.33
2017-09-21T23:47:15.765Z,25.50
2017-09-21T23:49:50.555Z,23.57
2017-09-21T23:52:25.254Z,25.80
2017-09-21T23:55:00.075Z,24.10
2017-09-21T23:57:34.914Z,24.10
